createdAt,value
2017-05-06T00:00:15.225Z,0
2017-05-06T00:01:29.860Z,0
2017-05-06T00:02:00.650Z,0
2017-05-06T00:03:00.672Z,0
2017-05-06T00:05:00.716Z,0
2017-05-06T00:06:29.995Z,0
2017-05-06T00:07:00.755Z,0
2017-05-06T00:08:00.788Z,0
2017-05-06T00:10:00.831Z,0
2017-05-06T00:11:00.853Z,0
2017-05-06T00:12:00.869Z,0
2017-05-06T00:13:00.891Z,0
2017-05-06T00:14:00.916Z,0
2017-05-06T00:15:00.636Z,0
2017-05-06T00:16:00.956Z,0
2017-05-06T00:17:00.998Z,0
2017-05-06T00:18:00.996Z,0
2017-05-06T00:19:01.030Z,0
2017-05-06T00:20:15.660Z,0
2017-05-06T00:21:01.064Z,0
2017-05-06T00:22:01.084Z,0
2017-05-06T00:23:01.108Z,0
2017-05-06T00:24:01.125Z,0
2017-05-06T00:25:01.156Z,0
2017-05-06T00:26:01.176Z,0
2017-05-06T00:27:15.509Z,0
2017-05-06T00:28:01.215Z,0
2017-05-06T00:29:01.237Z,0
2017-05-06T00:30:01.259Z,0
2017-05-06T00:32:15.921Z,0
2017-05-06T00:33:01.325Z,0
2017-05-06T00:35:15.984Z,0
2017-05-06T00:36:15.703Z,0
2017-05-06T00:37:01.414Z,0
2017-05-06T00:38:01.443Z,0
2017-05-06T00:39:01.461Z,0
2017-05-06T00:40:15.489Z,0
2017-05-06T00:41:01.498Z,0
2017-05-06T00:42:01.524Z,0
2017-05-06T00:43:01.543Z,0
2017-05-06T00:44:16.178Z,0
2017-05-06T00:45:01.587Z,0
2017-05-06T00:46:01.618Z,0
2017-05-06T00:47:01.625Z,0
2017-05-06T00:48:16.263Z,0
2017-05-06T00:49:16.290Z,0
2017-05-06T00:50:01.696Z,0
2017-05-06T00:51:01.714Z,0
2017-05-06T00:52:16.350Z,0
2017-05-06T00:53:01.766Z,0
2017-05-06T00:54:01.783Z,0
2017-05-06T00:56:01.817Z,0
2017-05-06T00:57:01.844Z,0
2017-05-06T00:58:01.869Z,0
2017-05-06T00:59:01.586Z,0
2017-05-06T01:00:01.912Z,0
2017-05-06T01:01:01.929Z,0
2017-05-06T01:02:16.566Z,0
2017-05-06T01:03:16.295Z,0
2017-05-06T01:04:01.692Z,0
2017-05-06T01:05:01.717Z,0
2017-05-06T01:06:01.743Z,0
2017-05-06T01:08:01.477Z,0
2017-05-06T01:09:16.124Z,0
2017-05-06T01:10:02.123Z,0
2017-05-06T01:11:02.148Z,0
2017-05-06T01:12:01.863Z,0
2017-05-06T01:13:02.195Z,0
2017-05-06T01:14:16.827Z,0
2017-05-06T01:15:01.932Z,0
2017-05-06T01:16:02.254Z,0
2017-05-06T01:17:01.969Z,0
2017-05-06T01:18:16.920Z,0
2017-05-06T01:19:16.935Z,0
2017-05-06T01:20:16.652Z,0
2017-05-06T01:21:02.357Z,0
2017-05-06T01:22:02.385Z,0
2017-05-06T01:24:02.432Z,0
2017-05-06T01:25:01.846Z,0
2017-05-06T01:26:02.467Z,0
2017-05-06T01:27:02.491Z,0
2017-05-06T01:28:16.830Z,0
2017-05-06T01:29:02.230Z,0
2017-05-06T01:30:02.263Z,0
2017-05-06T01:31:02.579Z,0
2017-05-06T01:32:02.599Z,0
2017-05-06T01:33:02.622Z,0
2017-05-06T01:34:02.640Z,0
2017-05-06T01:35:02.662Z,0
2017-05-06T01:36:02.683Z,0
2017-05-06T01:37:02.708Z,0
2017-05-06T01:38:02.728Z,0
2017-05-06T01:39:16.757Z,0
2017-05-06T01:40:17.393Z,0
2017-05-06T01:41:02.805Z,0
2017-05-06T01:42:02.809Z,0
2017-05-06T01:43:02.833Z,0
2017-05-06T01:44:02.853Z,0
2017-05-06T01:45:17.495Z,0
2017-05-06T01:46:02.900Z,0
2017-05-06T01:47:17.535Z,0
2017-05-06T01:48:02.946Z,0
2017-05-06T01:49:02.992Z,0
2017-05-06T01:50:02.994Z,0
2017-05-06T01:51:17.619Z,0
2017-05-06T01:52:03.062Z,0
2017-05-06T01:53:03.054Z,0
2017-05-06T01:54:02.770Z,0
2017-05-06T01:57:03.134Z,0
2017-05-06T01:58:03.165Z,0
2017-05-06T01:59:03.175Z,0
2017-05-06T02:00:03.196Z,0
2017-05-06T02:01:03.223Z,0
2017-05-06T02:02:03.245Z,0
2017-05-06T02:03:03.264Z,0
2017-05-06T02:04:02.985Z,0
2017-05-06T02:05:03.314Z,0
2017-05-06T02:06:03.327Z,0
2017-05-06T02:07:17.965Z,0
2017-05-06T02:08:32.295Z,0
2017-05-06T02:09:03.392Z,0
2017-05-06T02:10:17.722Z,0
2017-05-06T02:11:18.045Z,0
2017-05-06T02:12:03.155Z,0
2017-05-06T02:13:03.172Z,0
2017-05-06T02:14:03.198Z,0
2017-05-06T02:15:03.219Z,0
2017-05-06T02:16:03.534Z,0
2017-05-06T02:17:03.265Z,0
2017-05-06T02:18:03.276Z,0
2017-05-06T02:19:03.298Z,0
2017-05-06T02:20:03.323Z,0
2017-05-06T02:21:18.259Z,0
2017-05-06T02:22:03.368Z,0
2017-05-06T02:23:03.382Z,0
2017-05-06T02:24:03.715Z,0
2017-05-06T02:25:18.044Z,0
2017-05-06T02:26:03.753Z,0
2017-05-06T02:27:18.396Z,0
2017-05-06T02:28:03.505Z,0
2017-05-06T02:29:03.817Z,0
2017-05-06T02:30:18.459Z,0
2017-05-06T02:31:03.557Z,0
2017-05-06T02:33:03.901Z,0
2017-05-06T02:34:03.929Z,0
2017-05-06T02:35:03.641Z,0
2017-05-06T02:36:18.582Z,0
2017-05-06T02:37:04.002Z,0
2017-05-06T02:38:04.014Z,0
2017-05-06T02:39:18.651Z,0
2017-05-06T02:40:04.056Z,0
2017-05-06T02:41:04.072Z,0
2017-05-06T02:42:18.715Z,0
2017-05-06T02:43:18.745Z,0
2017-05-06T02:44:04.138Z,0
2017-05-06T02:45:04.165Z,0
2017-05-06T02:46:18.802Z,0
2017-05-06T02:47:18.824Z,0
2017-05-06T02:48:04.237Z,0
2017-05-06T02:49:04.245Z,0
2017-05-06T02:50:04.269Z,0
2017-05-06T02:51:04.294Z,0
2017-05-06T02:52:04.315Z,0
2017-05-06T02:53:04.331Z,0
2017-05-06T02:55:04.375Z,0
2017-05-06T02:56:04.398Z,0
2017-05-06T02:57:04.420Z,0
2017-05-06T02:58:04.443Z,0
2017-05-06T02:59:04.463Z,0
2017-05-06T03:00:04.486Z,0
2017-05-06T03:01:04.533Z,0
2017-05-06T03:02:04.530Z,0
2017-05-06T03:03:04.247Z,0
2017-05-06T03:04:04.271Z,0
2017-05-06T03:05:04.593Z,0
2017-05-06T03:06:04.614Z,0
2017-05-06T03:07:04.641Z,0
2017-05-06T03:08:33.890Z,0
2017-05-06T03:09:04.676Z,0
2017-05-06T03:10:04.697Z,0
2017-05-06T03:11:33.951Z,0
2017-05-06T03:12:04.738Z,0
2017-05-06T03:13:19.378Z,0
2017-05-06T03:14:19.401Z,0
2017-05-06T03:15:19.419Z,0
2017-05-06T03:16:19.449Z,0
2017-05-06T03:17:04.844Z,0
2017-05-06T03:18:04.875Z,0
2017-05-06T03:20:04.608Z,0
2017-05-06T03:21:19.248Z,0
2017-05-06T03:22:04.956Z,0
2017-05-06T03:23:04.975Z,0
2017-05-06T03:24:04.692Z,0
2017-05-06T03:26:05.060Z,0
2017-05-06T03:27:05.067Z,0
2017-05-06T03:28:05.088Z,0
2017-05-06T03:29:05.104Z,0
2017-05-06T03:31:05.147Z,0
2017-05-06T03:33:19.817Z,0
2017-05-06T03:34:05.222Z,0
2017-05-06T03:35:05.232Z,0
2017-05-06T03:36:05.282Z,0
2017-05-06T03:37:05.274Z,0
2017-05-06T03:38:05.299Z,0
2017-05-06T03:39:19.955Z,0
2017-05-06T03:40:19.957Z,0
2017-05-06T03:41:05.366Z,0
2017-05-06T03:42:05.386Z,0
2017-05-06T03:43:05.097Z,5
2017-05-06T03:44:05.429Z,5
2017-05-06T03:45:20.060Z,5
2017-05-06T03:46:20.083Z,5
2017-05-06T03:47:05.488Z,5
2017-05-06T03:48:05.516Z,5
2017-05-06T03:49:05.536Z,5
2017-05-06T03:50:05.547Z,10
2017-05-06T03:51:05.574Z,10
2017-05-06T03:52:05.292Z,10
2017-05-06T03:53:20.232Z,10
2017-05-06T03:54:05.652Z,10
2017-05-06T03:55:05.652Z,10
2017-05-06T03:56:05.679Z,15
2017-05-06T03:57:05.728Z,15
2017-05-06T03:58:20.339Z,15
2017-05-06T03:59:20.357Z,15
2017-05-06T04:00:20.085Z,15
2017-05-06T04:01:05.800Z,15
2017-05-06T04:02:20.118Z,15
2017-05-06T04:03:05.839Z,15
2017-05-06T04:04:05.844Z,15
2017-05-06T04:05:05.875Z,15
2017-05-06T04:06:05.894Z,15
2017-05-06T04:07:05.606Z,15
2017-05-06T04:08:05.935Z,20
2017-05-06T04:09:20.601Z,20
2017-05-06T04:10:05.976Z,25
2017-05-06T04:11:05.992Z,25
2017-05-06T04:12:06.018Z,25
2017-05-06T04:13:20.347Z,25
2017-05-06T04:14:35.289Z,25
2017-05-06T04:15:05.776Z,30
2017-05-06T04:16:05.793Z,25
2017-05-06T04:17:20.737Z,30
2017-05-06T04:18:06.152Z,30
2017-05-06T04:19:06.168Z,30
2017-05-06T04:20:05.884Z,30
2017-05-06T04:21:05.905Z,30
2017-05-06T04:22:06.231Z,30
2017-05-06T04:24:06.271Z,35
2017-05-06T04:25:05.686Z,35
2017-05-06T04:26:05.706Z,30
2017-05-06T04:27:06.035Z,30
2017-05-06T04:28:06.373Z,30
2017-05-06T04:29:06.384Z,30
2017-05-06T04:30:06.398Z,35
2017-05-06T04:31:21.045Z,35
2017-05-06T04:32:06.446Z,35
2017-05-06T04:35:06.511Z,40
2017-05-06T04:36:06.531Z,40
2017-05-06T04:37:06.549Z,35
2017-05-06T04:38:06.575Z,35
2017-05-06T04:39:06.596Z,35
2017-05-06T04:40:06.312Z,40
2017-05-06T04:41:21.251Z,40
2017-05-06T04:42:06.662Z,40
2017-05-06T04:43:06.681Z,40
2017-05-06T04:44:35.964Z,35
2017-05-06T04:45:06.415Z,35
2017-05-06T04:46:06.742Z,35
2017-05-06T04:47:06.762Z,35
2017-05-06T04:48:21.400Z,35
2017-05-06T04:49:35.740Z,35
2017-05-06T04:50:06.527Z,35
2017-05-06T04:51:06.551Z,35
2017-05-06T04:52:06.873Z,40
2017-05-06T04:53:06.898Z,35
2017-05-06T04:54:06.911Z,35
2017-05-06T04:55:06.634Z,35
2017-05-06T04:56:36.196Z,35
2017-05-06T04:57:06.675Z,30
2017-05-06T04:58:07.001Z,35
2017-05-06T04:59:06.751Z,35
2017-05-06T05:00:07.046Z,35
2017-05-06T05:01:36.299Z,40
2017-05-06T05:02:21.706Z,35
2017-05-06T05:03:06.804Z,40
2017-05-06T05:04:07.135Z,45
2017-05-06T05:05:21.767Z,45
2017-05-06T05:06:07.172Z,45
2017-05-06T05:07:07.196Z,50
2017-05-06T05:08:07.225Z,50
2017-05-06T05:09:07.242Z,50
2017-05-06T05:10:07.258Z,50
2017-05-06T05:11:07.283Z,55
2017-05-06T05:12:07.303Z,60
2017-05-06T05:13:07.356Z,70
2017-05-06T05:14:21.665Z,65
2017-05-06T05:16:07.392Z,50
2017-05-06T05:17:07.414Z,50
2017-05-06T05:18:07.434Z,50
2017-05-06T05:19:07.455Z,60
2017-05-06T05:20:07.480Z,65
2017-05-06T05:21:22.176Z,70
2017-05-06T05:22:22.144Z,70
2017-05-06T05:23:07.550Z,70
2017-05-06T05:24:07.568Z,65
2017-05-06T05:25:07.293Z,60
2017-05-06T05:26:07.618Z,60
2017-05-06T05:27:07.654Z,65
2017-05-06T05:28:07.659Z,65
2017-05-06T05:29:07.678Z,70
2017-05-06T05:30:22.324Z,80
2017-05-06T05:31:07.974Z,80
2017-05-06T05:32:22.358Z,85
2017-05-06T05:33:07.768Z,90
2017-05-06T05:34:22.404Z,85
2017-05-06T05:35:07.815Z,85
2017-05-06T05:36:07.827Z,80
2017-05-06T05:37:22.470Z,85
2017-05-06T05:38:07.874Z,90
2017-05-06T05:39:07.905Z,100
2017-05-06T05:40:07.623Z,105
2017-05-06T05:41:07.956Z,95
2017-05-06T05:42:07.675Z,100
2017-05-06T05:43:07.985Z,105
2017-05-06T05:44:08.037Z,110
2017-05-06T05:45:07.727Z,115
2017-05-06T05:46:08.049Z,105
2017-05-06T05:47:08.076Z,105
2017-05-06T05:48:07.792Z,110
2017-05-06T05:49:08.124Z,125
2017-05-06T05:50:07.839Z,120
2017-05-06T05:51:07.859Z,105
2017-05-06T05:52:22.195Z,95
2017-05-06T05:54:08.231Z,105
2017-05-06T05:55:08.256Z,115
2017-05-06T05:56:08.281Z,115
2017-05-06T05:57:08.302Z,115
2017-05-06T05:58:22.332Z,110
2017-05-06T05:59:08.352Z,110
2017-05-06T06:00:08.061Z,105
2017-05-06T06:01:23.004Z,100
2017-05-06T06:02:08.416Z,95
2017-05-06T06:03:08.436Z,100
2017-05-06T06:04:08.458Z,95
2017-05-06T06:05:08.484Z,90
2017-05-06T06:06:08.501Z,85
2017-05-06T06:07:22.837Z,80
2017-05-06T06:08:23.163Z,85
2017-05-06T06:09:23.185Z,90
2017-05-06T06:10:08.593Z,95
2017-05-06T06:11:08.652Z,95
2017-05-06T06:12:08.643Z,90
2017-05-06T06:13:08.359Z,85
2017-05-06T06:14:08.701Z,80
2017-05-06T06:15:08.407Z,75
2017-05-06T06:16:08.431Z,75
2017-05-06T06:17:08.757Z,80
2017-05-06T06:18:23.391Z,80
2017-05-06T06:19:08.797Z,85
2017-05-06T06:20:08.825Z,85
2017-05-06T06:21:38.075Z,90
2017-05-06T06:22:08.869Z,95
2017-05-06T06:23:08.890Z,95
2017-05-06T06:24:23.526Z,95
2017-05-06T06:25:08.932Z,95
2017-05-06T06:26:08.959Z,95
2017-05-06T06:27:08.977Z,90
2017-05-06T06:28:09.001Z,90
2017-05-06T06:29:09.023Z,90
2017-05-06T06:30:09.050Z,90
2017-05-06T06:31:09.073Z,90
2017-05-06T06:32:23.707Z,95
2017-05-06T06:33:09.111Z,100
2017-05-06T06:34:09.147Z,100
2017-05-06T06:35:09.197Z,100
2017-05-06T06:36:09.182Z,95
2017-05-06T06:37:09.207Z,95
2017-05-06T06:38:23.869Z,95
2017-05-06T06:39:09.245Z,95
2017-05-06T06:40:23.893Z,95
2017-05-06T06:41:09.296Z,95
2017-05-06T06:42:09.322Z,95
2017-05-06T06:43:38.598Z,85
2017-05-06T06:44:09.370Z,75
2017-05-06T06:45:09.388Z,70
2017-05-06T06:46:09.409Z,85
2017-05-06T06:47:24.049Z,95
2017-05-06T06:48:09.457Z,95
2017-05-06T06:49:24.096Z,105
2017-05-06T06:50:09.195Z,105
2017-05-06T06:51:09.522Z,100
2017-05-06T06:52:24.162Z,100
2017-05-06T06:53:09.565Z,100
2017-05-06T06:54:09.587Z,100
2017-05-06T06:55:09.615Z,95
2017-05-06T06:57:24.273Z,100
2017-05-06T06:58:09.684Z,105
2017-05-06T07:00:24.043Z,105
2017-05-06T07:01:09.749Z,110
2017-05-06T07:02:09.473Z,115
2017-05-06T07:03:09.495Z,105
2017-05-06T07:04:09.208Z,95
2017-05-06T07:05:09.544Z,95
2017-05-06T07:06:09.567Z,95
2017-05-06T07:07:09.280Z,95
2017-05-06T07:08:38.838Z,90
2017-05-06T07:09:39.163Z,95
2017-05-06T07:10:09.658Z,95
2017-05-06T07:11:09.980Z,100
2017-05-06T07:12:24.620Z,95
2017-05-06T07:15:24.393Z,105
2017-05-06T07:16:09.789Z,115
2017-05-06T07:17:24.446Z,105
2017-05-06T07:18:09.842Z,100
2017-05-06T07:19:10.159Z,100
2017-05-06T07:20:09.576Z,100
2017-05-06T07:21:24.822Z,95
2017-05-06T07:22:24.843Z,90
2017-05-06T07:23:24.874Z,90
2017-05-06T07:24:10.275Z,85
2017-05-06T07:25:10.295Z,80
2017-05-06T07:26:10.324Z,80
2017-05-06T07:27:24.656Z,90
2017-05-06T07:28:10.366Z,90
2017-05-06T07:29:10.395Z,95
2017-05-06T07:30:10.111Z,100
2017-05-06T07:32:10.462Z,95
2017-05-06T07:33:10.475Z,90
2017-05-06T07:34:10.199Z,90
2017-05-06T07:35:10.526Z,100
2017-05-06T07:36:10.246Z,105
2017-05-06T07:37:10.568Z,120
2017-05-06T07:38:10.594Z,140
2017-05-06T07:39:10.010Z,140
2017-05-06T07:40:10.642Z,150
2017-05-06T07:41:25.280Z,155
2017-05-06T07:42:10.081Z,160
2017-05-06T07:43:25.328Z,170
2017-05-06T07:44:10.732Z,165
2017-05-06T07:46:10.776Z,160
2017-05-06T07:47:10.805Z,165
2017-05-06T07:48:25.449Z,170
2017-05-06T07:50:10.870Z,145
2017-05-06T07:51:10.890Z,135
2017-05-06T07:52:10.614Z,130
2017-05-06T07:53:10.636Z,130
2017-05-06T07:54:10.663Z,135
2017-05-06T07:55:25.301Z,145
2017-05-06T07:56:10.437Z,145
2017-05-06T07:57:25.675Z,130
2017-05-06T07:58:25.674Z,120
2017-05-06T07:59:25.694Z,120
2017-05-06T08:02:11.151Z,135
2017-05-06T08:03:11.178Z,140
2017-05-06T08:05:11.218Z,140
2017-05-06T08:06:11.244Z,135
2017-05-06T08:07:25.881Z,135
2017-05-06T08:08:25.903Z,140
2017-05-06T08:09:11.311Z,145
2017-05-06T08:10:11.333Z,150
2017-05-06T08:11:11.358Z,170
2017-05-06T08:12:11.381Z,190
2017-05-06T08:13:11.104Z,205
2017-05-06T08:14:11.123Z,235
2017-05-06T08:15:25.767Z,275
2017-05-06T08:16:26.105Z,325
2017-05-06T08:18:11.519Z,410
2017-05-06T08:19:11.547Z,485
2017-05-06T08:20:10.959Z,520
2017-05-06T08:21:11.595Z,475
2017-05-06T08:22:11.619Z,600
2017-05-06T08:23:11.645Z,535
2017-05-06T08:24:26.284Z,425
2017-05-06T08:25:11.389Z,425
2017-05-06T08:26:26.030Z,405
2017-05-06T08:27:11.742Z,385
2017-05-06T08:28:11.767Z,360
2017-05-06T08:29:11.793Z,370
2017-05-06T08:30:11.816Z,365
2017-05-06T08:31:26.460Z,325
2017-05-06T08:32:11.569Z,315
2017-05-06T08:34:11.924Z,345
2017-05-06T08:35:11.940Z,350
2017-05-06T08:36:11.966Z,335
2017-05-06T08:37:11.993Z,345
2017-05-06T08:39:26.663Z,370
2017-05-06T08:40:12.072Z,345
2017-05-06T08:41:12.098Z,335
2017-05-06T08:42:12.124Z,335
2017-05-06T08:43:11.846Z,325
2017-05-06T08:44:26.822Z,320
2017-05-06T08:45:11.898Z,325
2017-05-06T08:46:26.840Z,325
2017-05-06T08:47:26.865Z,345
2017-05-06T08:48:12.274Z,360
2017-05-06T08:49:12.297Z,340
2017-05-06T08:50:12.021Z,330
2017-05-06T08:51:12.350Z,305
2017-05-06T08:52:11.767Z,310
2017-05-06T08:53:12.404Z,320
2017-05-06T08:55:12.461Z,340
2017-05-06T08:56:12.176Z,300
2017-05-06T08:57:12.512Z,305
2017-05-06T08:58:27.159Z,335
2017-05-06T08:59:41.792Z,355
2017-05-06T09:00:11.992Z,360
2017-05-06T09:01:12.007Z,380
2017-05-06T09:02:27.256Z,355
2017-05-06T09:03:27.281Z,330
2017-05-06T09:04:12.386Z,310
2017-05-06T09:06:12.443Z,290
2017-05-06T09:07:12.770Z,290
2017-05-06T09:08:12.492Z,300
2017-05-06T09:09:12.516Z,325
2017-05-06T09:10:27.167Z,325
2017-05-06T09:11:12.569Z,330
2017-05-06T09:12:12.598Z,340
2017-05-06T09:13:12.622Z,385
2017-05-06T09:14:27.573Z,380
2017-05-06T09:15:12.677Z,370
2017-05-06T09:16:13.005Z,370
2017-05-06T09:17:27.650Z,360
2017-05-06T09:18:12.757Z,365
2017-05-06T09:19:27.701Z,330
2017-05-06T09:20:12.811Z,330
2017-05-06T09:21:12.836Z,320
2017-05-06T09:23:12.889Z,320
2017-05-06T09:24:12.917Z,335
2017-05-06T09:25:13.242Z,345
2017-05-06T09:26:27.586Z,350
2017-05-06T09:27:13.002Z,345
2017-05-06T09:28:13.021Z,340
2017-05-06T09:29:13.353Z,340
2017-05-06T09:30:13.387Z,330
2017-05-06T09:31:28.024Z,355
2017-05-06T09:32:12.825Z,425
2017-05-06T09:33:13.462Z,440
2017-05-06T09:34:28.110Z,385
2017-05-06T09:35:13.210Z,395
2017-05-06T09:36:13.232Z,395
2017-05-06T09:37:13.567Z,330
2017-05-06T09:38:13.592Z,380
2017-05-06T09:39:13.015Z,310
2017-05-06T09:40:13.348Z,345
2017-05-06T09:41:13.374Z,350
2017-05-06T09:42:13.098Z,335
2017-05-06T09:43:28.350Z,300
2017-05-06T09:44:13.760Z,350
2017-05-06T09:45:13.784Z,350
2017-05-06T09:47:13.841Z,365
2017-05-06T09:48:13.868Z,355
2017-05-06T09:49:13.596Z,340
2017-05-06T09:52:13.673Z,310
2017-05-06T09:53:14.007Z,300
2017-05-06T09:54:13.735Z,295
2017-05-06T09:55:13.764Z,295
2017-05-06T09:56:28.406Z,285
2017-05-06T09:57:14.119Z,285
2017-05-06T09:58:14.149Z,325
2017-05-06T09:59:14.174Z,305
2017-05-06T10:00:43.438Z,330
2017-05-06T10:01:43.463Z,345
2017-05-06T10:02:28.570Z,355
2017-05-06T10:03:13.978Z,350
2017-05-06T10:04:14.308Z,310
2017-05-06T10:05:14.339Z,320
2017-05-06T10:06:28.678Z,310
2017-05-06T10:07:13.796Z,330
2017-05-06T10:08:13.810Z,355
2017-05-06T10:09:14.450Z,320
2017-05-06T10:10:14.172Z,365
2017-05-06T10:11:14.198Z,350
2017-05-06T10:12:14.531Z,295
2017-05-06T10:13:14.560Z,275
2017-05-06T10:14:29.204Z,255
2017-05-06T10:15:14.309Z,245
2017-05-06T10:16:14.642Z,240
2017-05-06T10:17:14.086Z,235
2017-05-06T10:18:43.931Z,220
2017-05-06T10:19:14.426Z,210
2017-05-06T10:20:14.447Z,195
2017-05-06T10:21:14.776Z,185
2017-05-06T10:22:29.121Z,175
2017-05-06T10:23:14.531Z,170
2017-05-06T10:24:14.557Z,160
2017-05-06T10:25:14.884Z,155
2017-05-06T10:26:14.913Z,140
2017-05-06T10:28:14.661Z,115
2017-05-06T10:29:14.993Z,105
2017-05-06T10:31:14.743Z,95
2017-05-06T10:32:15.072Z,90
2017-05-06T10:33:29.739Z,90
2017-05-06T10:34:29.136Z,90
2017-05-06T10:35:15.183Z,85
2017-05-06T10:36:13.967Z,80
2017-05-06T10:37:29.824Z,75
2017-05-06T10:39:14.957Z,70
2017-05-06T10:40:15.284Z,70
2017-05-06T10:41:15.313Z,70
2017-05-06T10:43:15.359Z,70
2017-05-06T10:44:15.387Z,75
2017-05-06T10:45:15.410Z,75
2017-05-06T10:46:15.441Z,80
2017-05-06T10:47:15.465Z,85
2017-05-06T10:48:14.877Z,90
2017-05-06T10:49:15.517Z,95
2017-05-06T10:50:44.772Z,115
2017-05-06T10:51:15.261Z,125
2017-05-06T10:52:15.592Z,135
2017-05-06T10:53:30.231Z,145
2017-05-06T10:54:15.647Z,145
2017-05-06T10:55:15.365Z,145
2017-05-06T10:58:15.743Z,145
2017-05-06T11:00:15.794Z,125
2017-05-06T11:01:15.820Z,115
2017-05-06T11:02:15.842Z,100
2017-05-06T11:03:15.871Z,100
2017-05-06T11:04:15.903Z,95
2017-05-06T11:05:15.920Z,95
2017-05-06T11:06:15.946Z,95
2017-05-06T11:07:30.613Z,100
2017-05-06T11:08:15.995Z,100
2017-05-06T11:09:30.638Z,100
2017-05-06T11:10:15.447Z,100
2017-05-06T11:12:16.101Z,100
2017-05-06T11:13:15.842Z,100
2017-05-06T11:15:15.870Z,100
2017-05-06T11:16:15.902Z,100
2017-05-06T11:17:15.921Z,105
2017-05-06T11:18:16.251Z,110
2017-05-06T11:19:30.591Z,115
2017-05-06T11:20:16.308Z,120
2017-05-06T11:21:30.644Z,120
2017-05-06T11:22:30.698Z,125
2017-05-06T11:23:16.071Z,125
2017-05-06T11:24:16.417Z,130
2017-05-06T11:25:31.041Z,140
2017-05-06T11:26:15.845Z,140
2017-05-06T11:27:16.481Z,140
2017-05-06T11:28:16.499Z,140
2017-05-06T11:29:16.529Z,145
2017-05-06T11:31:16.284Z,155
2017-05-06T11:32:16.605Z,165
2017-05-06T11:33:16.326Z,175
2017-05-06T11:34:16.654Z,185
2017-05-06T11:35:31.294Z,190
2017-05-06T11:36:16.405Z,195
2017-05-06T11:37:30.742Z,205
2017-05-06T11:38:45.683Z,205
2017-05-06T11:39:16.203Z,205
2017-05-06T11:40:31.118Z,210
2017-05-06T11:41:31.450Z,205
2017-05-06T11:42:16.860Z,205
2017-05-06T11:43:16.274Z,200
2017-05-06T11:44:16.602Z,205
2017-05-06T11:45:16.930Z,205
2017-05-06T11:46:16.352Z,205
2017-05-06T11:47:16.688Z,205
2017-05-06T11:48:16.707Z,210
2017-05-06T11:49:17.041Z,210
2017-05-06T11:50:17.060Z,210
2017-05-06T11:51:31.425Z,215
2017-05-06T11:52:16.510Z,215
2017-05-06T11:53:31.453Z,205
2017-05-06T11:54:16.557Z,200
2017-05-06T11:55:17.186Z,185
2017-05-06T11:56:16.911Z,185
2017-05-06T11:57:31.861Z,185
2017-05-06T11:58:17.266Z,185
2017-05-06T11:59:17.291Z,185
2017-05-06T12:00:17.012Z,185
2017-05-06T12:01:17.342Z,195
2017-05-06T12:02:17.366Z,195
2017-05-06T12:04:17.421Z,210
2017-05-06T12:05:32.086Z,220
2017-05-06T12:06:17.469Z,225
2017-05-06T12:07:32.114Z,230
2017-05-06T12:08:17.521Z,235
2017-05-06T12:09:17.246Z,235
2017-05-06T12:10:46.808Z,230
2017-05-06T12:11:17.602Z,235
2017-05-06T12:12:32.243Z,225
2017-05-06T12:13:17.351Z,220
2017-05-06T12:14:17.679Z,215
2017-05-06T12:16:17.431Z,215
2017-05-06T12:17:17.453Z,215
2017-05-06T12:18:17.785Z,220
2017-05-06T12:20:17.835Z,235
2017-05-06T12:21:17.559Z,230
2017-05-06T12:22:17.589Z,230
2017-05-06T12:23:47.149Z,225
2017-05-06T12:24:17.338Z,225
2017-05-06T12:25:17.969Z,230
2017-05-06T12:26:17.690Z,225
2017-05-06T12:27:18.022Z,225
2017-05-06T12:28:18.051Z,220
2017-05-06T12:29:18.100Z,215
2017-05-06T12:30:18.098Z,200
2017-05-06T12:31:18.122Z,195
2017-05-06T12:32:18.147Z,195
2017-05-06T12:34:18.205Z,195
2017-05-06T12:35:18.232Z,200
2017-05-06T12:36:32.871Z,185
2017-05-06T12:37:18.281Z,185
2017-05-06T12:38:18.000Z,185
2017-05-06T12:39:18.027Z,185
2017-05-06T12:40:18.060Z,185
2017-05-06T12:41:33.013Z,190
2017-05-06T12:42:18.439Z,180
2017-05-06T12:43:18.441Z,185
2017-05-06T12:44:33.078Z,185
2017-05-06T12:45:18.185Z,185
2017-05-06T12:46:18.519Z,190
2017-05-06T12:47:18.540Z,190
2017-05-06T12:48:18.565Z,185
2017-05-06T12:49:18.591Z,185
2017-05-06T12:50:18.618Z,185
2017-05-06T12:51:18.649Z,180
2017-05-06T12:52:18.391Z,175
2017-05-06T12:53:33.314Z,175
2017-05-06T12:54:18.416Z,170
2017-05-06T12:55:18.746Z,170
2017-05-06T12:56:33.395Z,170
2017-05-06T12:57:18.797Z,170
2017-05-06T12:58:33.448Z,170
2017-05-06T12:59:33.469Z,170
2017-05-06T13:00:33.495Z,175
2017-05-06T13:01:18.903Z,170
2017-05-06T13:02:18.952Z,175
2017-05-06T13:03:18.650Z,175
2017-05-06T13:04:18.988Z,175
2017-05-06T13:05:19.003Z,175
2017-05-06T13:06:19.032Z,175
2017-05-06T13:07:19.068Z,175
2017-05-06T13:08:33.708Z,175
2017-05-06T13:09:33.728Z,175
2017-05-06T13:10:18.840Z,175
2017-05-06T13:11:19.163Z,175
2017-05-06T13:12:33.502Z,175
2017-05-06T13:13:19.216Z,175
2017-05-06T13:14:19.239Z,180
2017-05-06T13:15:19.271Z,175
2017-05-06T13:16:33.905Z,180
2017-05-06T13:17:19.316Z,180
2017-05-06T13:18:19.341Z,180
2017-05-06T13:19:19.065Z,180
2017-05-06T13:20:19.095Z,180
2017-05-06T13:21:19.118Z,180
2017-05-06T13:22:19.140Z,180
2017-05-06T13:23:34.089Z,180
2017-05-06T13:24:34.113Z,180
2017-05-06T13:25:18.917Z,180
2017-05-06T13:26:19.546Z,180
2017-05-06T13:27:19.273Z,180
2017-05-06T13:28:48.528Z,180
2017-05-06T13:29:19.320Z,180
2017-05-06T13:30:19.653Z,180
2017-05-06T13:31:34.309Z,180
2017-05-06T13:32:34.017Z,185
2017-05-06T13:33:19.729Z,180
2017-05-06T13:34:18.845Z,180
2017-05-06T13:35:19.477Z,180
2017-05-06T13:36:19.804Z,180
2017-05-06T13:37:19.853Z,180
2017-05-06T13:38:19.854Z,180
2017-05-06T13:39:19.582Z,175
2017-05-06T13:40:19.603Z,175
2017-05-06T13:41:34.252Z,175
2017-05-06T13:42:19.046Z,175
2017-05-06T13:43:19.984Z,175
2017-05-06T13:44:19.703Z,170
2017-05-06T13:45:34.653Z,170
2017-05-06T13:46:20.068Z,170
2017-05-06T13:47:34.717Z,170
2017-05-06T13:48:19.833Z,170
2017-05-06T13:49:19.833Z,165
2017-05-06T13:50:20.163Z,165
2017-05-06T13:51:20.191Z,165
2017-05-06T13:52:20.213Z,160
2017-05-06T13:53:34.559Z,160
2017-05-06T13:55:34.909Z,160
2017-05-06T13:56:34.935Z,160
2017-05-06T13:57:20.347Z,165
2017-05-06T13:58:20.367Z,165
2017-05-06T13:59:20.092Z,165
2017-05-06T14:00:34.734Z,170
2017-05-06T14:01:20.453Z,170
2017-05-06T14:02:20.167Z,175
2017-05-06T14:03:35.113Z,175
2017-05-06T14:04:20.217Z,175
2017-05-06T14:05:20.248Z,180
2017-05-06T14:06:20.576Z,180
2017-05-06T14:07:20.602Z,175
2017-05-06T14:08:20.622Z,170
2017-05-06T14:09:35.276Z,165
2017-05-06T14:10:20.675Z,165
2017-05-06T14:11:20.397Z,165
2017-05-06T14:12:35.346Z,165
2017-05-06T14:13:20.750Z,165
2017-05-06T14:14:20.782Z,165
2017-05-06T14:15:20.801Z,170
2017-05-06T14:16:20.224Z,175
2017-05-06T14:17:20.882Z,175
2017-05-06T14:18:35.498Z,175
2017-05-06T14:20:20.932Z,175
2017-05-06T14:22:20.685Z,175
2017-05-06T14:24:20.729Z,170
2017-05-06T14:25:21.061Z,160
2017-05-06T14:26:21.089Z,150
2017-05-06T14:27:35.729Z,145
2017-05-06T14:28:21.143Z,140
2017-05-06T14:29:21.169Z,140
2017-05-06T14:30:21.188Z,135
2017-05-06T14:31:21.213Z,130
2017-05-06T14:32:35.857Z,125
2017-05-06T14:33:35.885Z,125
2017-05-06T14:34:35.301Z,120
2017-05-06T14:35:35.936Z,115
2017-05-06T14:36:21.344Z,110
2017-05-06T14:37:21.370Z,110
2017-05-06T14:38:21.393Z,105
2017-05-06T14:39:21.116Z,105
2017-05-06T14:40:21.467Z,100
2017-05-06T14:41:36.092Z,95
2017-05-06T14:42:21.495Z,95
2017-05-06T14:43:21.523Z,95
2017-05-06T14:45:36.189Z,95
2017-05-06T14:46:21.296Z,95
2017-05-06T14:47:36.242Z,100
2017-05-06T14:48:21.367Z,100
2017-05-06T14:49:21.672Z,105
2017-05-06T14:50:21.700Z,115
2017-05-06T14:51:36.038Z,125
2017-05-06T14:52:21.451Z,130
2017-05-06T14:53:21.781Z,135
2017-05-06T14:54:21.494Z,140
2017-05-06T14:55:21.825Z,145
2017-05-06T14:56:21.851Z,145
2017-05-06T14:57:21.877Z,140
2017-05-06T14:58:36.220Z,135
2017-05-06T14:59:21.929Z,135
2017-05-06T15:00:21.969Z,140
2017-05-06T15:01:21.977Z,125
2017-05-06T15:03:21.723Z,120
2017-05-06T15:04:36.670Z,120
2017-05-06T15:05:22.079Z,115
2017-05-06T15:06:21.801Z,115